Time;durP1;ratioP1;P1;durP2;ratioP2;P2;SDS_P1;SDS_P2;PMS_P1;PMS_P2;Temp;Humidity;BMP_temperature;BMP_pressure;BME280_temperature;BME280_humidity;BME280_pressure;Samples;Min_cycle;Max_cycle;Signal;HPM_P1;HPM_P2
2023/01/25 00:00:18;;;;;;;21.13;9.90;;;;;;;;;;4967433;28;20490;-65
2023/01/25 00:03:02;;;;;;;21.93;11.80;;;;;;;;;;4965090;28;20475;-65
2023/01/25 00:05:28;;;;;;;22.33;11.03;;;;;;;;;;4967554;28;20549;-65
2023/01/25 00:08:12;;;;;;;26.20;12.60;;;;;;;;;;4965581;28;20456;-65
2023/01/25 00:10:39;;;;;;;25.97;11.83;;;;;;;;;;4967514;28;20546;-65
2023/01/25 00:13:23;;;;;;;22.23;10.30;;;;;;;;;;4966920;28;20606;-65
2023/01/25 00:15:50;;;;;;;28.30;11.60;;;;;;;;;;4965536;28;21014;-65
2023/01/25 00:18:34;;;;;;;27.27;12.37;;;;;;;;;;4966994;28;20456;-65
2023/01/25 00:21:11;;;;;;;28.57;11.83;;;;;;;;;;4965400;28;20563;-65
2023/01/25 00:23:38;;;;;;;22.27;9.53;;;;;;;;;;4966023;28;20514;-65
2023/01/25 00:26:04;;;;;;;27.37;12.37;;;;;;;;;;4966992;28;20460;-65
2023/01/25 00:28:31;;;;;;;23.70;11.83;;;;;;;;;;4964391;28;21001;-65
2023/01/25 00:31:01;;;;;;;16.73;8.17;;;;;;;;;;4934049;28;20464;-64
2023/01/25 00:33:37;;;;;;;18.83;7.67;;;;;;;;;;4965085;28;21030;-65
2023/01/25 00:36:33;;;;;;;14.47;6.17;;;;;;;;;;4964995;28;20448;-65
2023/01/25 00:39:00;;;;;;;20.40;9.27;;;;;;;;;;4981061;28;20477;-65
2023/01/25 00:41:26;;;;;;;23.37;10.53;;;;;;;;;;4986437;28;20526;-65
2023/01/25 00:43:53;;;;;;;24.60;9.90;;;;;;;;;;4984951;28;20442;-65
2023/01/25 00:46:20;;;;;;;10.33;5.60;;;;;;;;;;4985949;28;20493;-65
2023/01/25 00:49:04;;;;;;;21.57;9.40;;;;;;;;;;4983910;28;20450;-65
2023/01/25 00:51:32;;;;;;;20.87;10.60;;;;;;;;;;4986212;28;20814;-65
2023/01/25 00:53:59;;;;;;;21.43;10.87;;;;;;;;;;4960661;28;20819;-65
2023/01/25 00:56:28;;;;;;;19.33;8.00;;;;;;;;;;4984635;28;20462;-65
2023/01/25 00:58:55;;;;;;;24.27;11.77;;;;;;;;;;4965112;28;20937;-65
2023/01/25 01:01:39;;;;;;;19.37;9.00;;;;;;;;;;4964299;28;20451;-65
2023/01/25 01:04:06;;;;;;;24.13;7.63;;;;;;;;;;4966430;28;20463;-65
2023/01/25 01:06:52;;;;;;;15.80;7.47;;;;;;;;;;4964549;28;20510;-65
2023/01/25 01:09:19;;;;;;;20.97;9.97;;;;;;;;;;4965011;28;20642;-64
2023/01/25 01:11:46;;;;;;;17.70;7.13;;;;;;;;;;4963430;28;20487;-65
2023/01/25 01:14:12;;;;;;;20.47;9.13;;;;;;;;;;4966494;28;20811;-64
2023/01/25 01:16:39;;;;;;;20.37;9.77;;;;;;;;;;4962981;28;20478;-65
2023/01/25 01:19:07;;;;;;;20.47;9.80;;;;;;;;;;4966188;28;20456;-64
2023/01/25 01:21:34;;;;;;;21.47;10.77;;;;;;;;;;4964874;28;20468;-65
2023/01/25 01:24:01;;;;;;;23.50;8.33;;;;;;;;;;4965227;28;20534;-64
2023/01/25 01:26:45;;;;;;;12.00;5.40;;;;;;;;;;4963954;28;20781;-64
2023/01/25 01:29:12;;;;;;;20.27;8.50;;;;;;;;;;4966010;28;20496;-64
2023/01/25 01:31:56;;;;;;;15.37;7.47;;;;;;;;;;4963540;28;20459;-65
2023/01/25 01:34:25;;;;;;;19.73;9.13;;;;;;;;;;4965651;28;20476;-64
2023/01/25 01:36:53;;;;;;;19.60;9.90;;;;;;;;;;4937471;28;20545;-65
2023/01/25 01:39:19;;;;;;;25.43;11.00;;;;;;;;;;4984104;28;20466;-64
2023/01/25 01:41:46;;;;;;;22.67;11.40;;;;;;;;;;4983853;28;20459;-64
2023/01/25 02:15:59;;;;;;;31.47;11.97;;;;;;;;;;4961615;28;20550;-65
2023/01/25 02:18:27;;;;;;;30.10;13.60;;;;;;;;;;4929377;28;20499;-65
2023/01/25 02:20:55;;;;;;;29.13;12.37;;;;;;;;;;4932192;28;20467;-65
2023/01/25 02:23:31;;;;;;;23.13;10.77;;;;;;;;;;4930439;28;20556;-64
2023/01/25 02:25:59;;;;;;;30.20;13.67;;;;;;;;;;4963159;28;20456;-64
2023/01/25 02:28:29;;;;;;;23.63;11.70;;;;;;;;;;4961365;28;20476;-65
2023/01/25 02:30:56;;;;;;;24.90;9.73;;;;;;;;;;4947625;28;20467;-64
2023/01/25 02:33:40;;;;;;;20.80;8.93;;;;;;;;;;4961892;28;20559;-64
2023/01/25 02:36:09;;;;;;;24.00;11.07;;;;;;;;;;4945246;28;20456;-64
2023/01/25 02:38:40;;;;;;;20.73;10.93;;;;;;;;;;4979112;28;20462;-64
2023/01/25 02:41:07;;;;;;;30.57;9.30;;;;;;;;;;4963520;28;20546;-65
2023/01/25 02:43:34;;;;;;;21.53;9.13;;;;;;;;;;4966742;28;20459;-64
2023/01/25 02:46:04;;;;;;;20.80;10.23;;;;;;;;;;4965013;28;20463;-65
2023/01/25 02:48:31;;;;;;;16.80;6.47;;;;;;;;;;4964464;28;20470;-64
2023/01/25 02:50:58;;;;;;;24.43;10.70;;;;;;;;;;4984156;28;20463;-64
2023/01/25 02:53:24;;;;;;;25.70;12.00;;;;;;;;;;4982309;28;20446;-64
2023/01/25 02:55:51;;;;;;;16.47;7.50;;;;;;;;;;4966420;28;20466;-64
2023/01/25 02:58:17;;;;;;;23.43;12.87;;;;;;;;;;4960690;28;20459;-64
2023/01/25 03:00:44;;;;;;;24.60;11.47;;;;;;;;;;4962905;28;20475;-64
2023/01/25 03:03:11;;;;;;;24.50;12.13;;;;;;;;;;4961844;28;20452;-65
2023/01/25 03:05:37;;;;;;;26.63;13.13;;;;;;;;;;4962958;28;20879;-65
2023/01/25 03:08:24;;;;;;;27.57;12.17;;;;;;;;;;4961466;28;20458;-65
2023/01/25 03:10:56;;;;;;;27.17;13.20;;;;;;;;;;4961511;28;21010;-65
2023/01/25 03:13:24;;;;;;;25.83;12.60;;;;;;;;;;4960955;28;20482;-65
2023/01/25 03:15:51;;;;;;;27.27;13.57;;;;;;;;;;4963352;28;20495;-65
2023/01/25 03:18:18;;;;;;;24.77;11.93;;;;;;;;;;4962373;28;20582;-65
2023/01/25 03:21:05;;;;;;;10.53;6.03;;;;;;;;;;4964087;28;20474;-65
2023/01/25 03:23:32;;;;;;;18.93;10.40;;;;;;;;;;4961903;28;20998;-65
2023/01/25 03:26:20;;;;;;;20.60;10.47;;;;;;;;;;4960537;28;20932;-65
2023/01/25 03:29:00;;;;;;;19.60;10.20;;;;;;;;;;4961097;28;20474;-65
2023/01/25 03:31:46;;;;;;;20.73;10.27;;;;;;;;;;4962468;28;20444;-65
2023/01/25 03:34:13;;;;;;;22.63;10.30;;;;;;;;;;4960914;28;20484;-65
2023/01/25 03:36:58;;;;;;;12.17;4.60;;;;;;;;;;4962227;28;20528;-65
2023/01/25 03:39:27;;;;;;;12.97;6.50;;;;;;;;;;4964503;28;20451;-65
2023/01/25 03:41:54;;;;;;;10.80;5.13;;;;;;;;;;4966024;28;22837;-65
2023/01/25 03:44:21;;;;;;;19.60;8.83;;;;;;;;;;4964746;28;20477;-65
2023/01/25 03:46:48;;;;;;;21.70;11.33;;;;;;;;;;4965140;28;20461;-65
2023/01/25 03:49:32;;;;;;;14.63;7.37;;;;;;;;;;4985481;28;20985;-65
2023/01/25 03:51:59;;;;;;;22.93;10.77;;;;;;;;;;4968014;28;20564;-65
2023/01/25 03:54:33;;;;;;;21.80;10.47;;;;;;;;;;4984125;28;20934;-65
2023/01/25 03:57:00;;;;;;;16.63;9.17;;;;;;;;;;4969789;28;20824;-65
2023/01/25 03:59:57;;;;;;;13.03;6.70;;;;;;;;;;4966001;28;20462;-64
2023/01/25 04:02:25;;;;;;;11.30;5.23;;;;;;;;;;4948253;28;20471;-65
2023/01/25 04:05:12;;;;;;;20.63;11.03;;;;;;;;;;4965860;28;20483;-65
2023/01/25 04:07:40;;;;;;;12.30;4.67;;;;;;;;;;4964834;28;20459;-64
2023/01/25 04:10:32;;;;;;;20.47;10.47;;;;;;;;;;4948551;28;20459;-64
2023/01/25 04:12:59;;;;;;;24.47;11.37;;;;;;;;;;4965866;28;20467;-64
2023/01/25 04:15:26;;;;;;;14.03;6.00;;;;;;;;;;4964278;28;20542;-65
2023/01/25 04:17:56;;;;;;;21.80;9.03;;;;;;;;;;4950733;28;20550;-64
2023/01/25 04:20:23;;;;;;;22.83;12.20;;;;;;;;;;4964413;28;20514;-64
2023/01/25 04:23:08;;;;;;;23.60;12.17;;;;;;;;;;4964746;28;20931;-64
2023/01/25 04:25:36;;;;;;;22.87;11.83;;;;;;;;;;4963988;28;20556;-64
2023/01/25 04:28:21;;;;;;;26.03;12.83;;;;;;;;;;4965578;28;21007;-65
2023/01/25 04:30:48;;;;;;;23.30;12.40;;;;;;;;;;4964725;28;20479;-65
2023/01/25 04:33:16;;;;;;;27.77;11.70;;;;;;;;;;4965100;28;22506;-64
2023/01/25 04:35:43;;;;;;;23.07;9.70;;;;;;;;;;4948119;28;21265;-64
2023/01/25 04:38:10;;;;;;;26.87;13.03;;;;;;;;;;4968570;28;20966;-64
2023/01/25 04:40:39;;;;;;;28.63;12.83;;;;;;;;;;4956340;28;20522;-65
2023/01/25 04:43:06;;;;;;;33.43;13.90;;;;;;;;;;4949053;28;20471;-64
2023/01/25 04:45:35;;;;;;;30.37;13.63;;;;;;;;;;4963775;28;20474;-65
2023/01/25 04:48:24;;;;;;;33.53;15.07;;;;;;;;;;4963068;28;20466;-65
2023/01/25 04:50:55;;;;;;;36.03;15.10;;;;;;;;;;4964763;28;20483;-65
2023/01/25 04:53:40;;;;;;;29.27;13.23;;;;;;;;;;4965091;28;20479;-64
2023/01/25 04:56:06;;;;;;;33.33;13.30;;;;;;;;;;4964416;28;20475;-64
2023/01/25 04:58:53;;;;;;;16.20;6.70;;;;;;;;;;4961131;28;20955;-64
2023/01/25 05:01:20;;;;;;;28.80;12.90;;;;;;;;;;4959209;28;21039;-65
2023/01/25 05:03:49;;;;;;;29.83;11.40;;;;;;;;;;4959946;28;20472;-65
2023/01/25 05:06:30;;;;;;;29.53;12.03;;;;;;;;;;4961759;28;20950;-65
2023/01/25 05:09:16;;;;;;;21.50;9.33;;;;;;;;;;4961128;28;20439;-64
2023/01/25 05:11:44;;;;;;;25.63;8.90;;;;;;;;;;4932798;28;21172;-65
2023/01/25 05:14:19;;;;;;;24.10;9.00;;;;;;;;;;4947072;28;20455;-65
2023/01/25 05:16:46;;;;;;;34.37;15.33;;;;;;;;;;4964654;28;20484;-65
2023/01/25 05:19:30;;;;;;;31.23;12.17;;;;;;;;;;4962203;28;20933;-64
2023/01/25 05:22:01;;;;;;;30.73;11.17;;;;;;;;;;4946228;28;20464;-64
2023/01/25 05:24:50;;;;;;;25.23;10.60;;;;;;;;;;4964534;28;22900;-65
2023/01/25 05:27:17;;;;;;;42.67;15.40;;;;;;;;;;4947029;28;20496;-64
2023/01/25 05:30:37;;;;;;;45.60;15.27;;;;;;;;;;4963166;28;20514;-64
2023/01/25 05:33:20;;;;;;;25.93;9.63;;;;;;;;;;4947917;28;20452;-64
2023/01/25 05:35:47;;;;;;;39.27;15.10;;;;;;;;;;4930518;28;20850;-65
2023/01/25 05:38:14;;;;;;;39.63;15.17;;;;;;;;;;4958862;28;20859;-64
2023/01/25 05:40:41;;;;;;;41.50;15.80;;;;;;;;;;4981855;28;20471;-64
2023/01/25 05:43:08;;;;;;;47.27;16.87;;;;;;;;;;4975461;28;20459;-64
2023/01/25 05:45:34;;;;;;;45.77;15.77;;;;;;;;;;4961341;28;20448;-64
2023/01/25 05:48:04;;;;;;;36.03;14.57;;;;;;;;;;4962144;28;20534;-65
2023/01/25 05:50:49;;;;;;;40.20;13.33;;;;;;;;;;4964096;28;20448;-64
2023/01/25 05:53:23;;;;;;;34.73;12.47;;;;;;;;;;4948030;28;20451;-65
2023/01/25 05:56:09;;;;;;;36.90;11.80;;;;;;;;;;4965130;28;20451;-64
2023/01/25 05:58:37;;;;;;;33.57;12.83;;;;;;;;;;4961952;28;20459;-64
2023/01/25 06:01:21;;;;;;;38.07;13.77;;;;;;;;;;4964933;28;20510;-64
2023/01/25 06:03:52;;;;;;;39.63;15.17;;;;;;;;;;4962056;28;20464;-64
2023/01/25 06:06:21;;;;;;;36.60;13.00;;;;;;;;;;4961744;28;20468;-65
2023/01/25 06:08:48;;;;;;;28.00;11.83;;;;;;;;;;4947944;28;20942;-64
2023/01/25 06:11:16;;;;;;;37.77;15.07;;;;;;;;;;4962487;28;20471;-64
2023/01/25 06:13:44;;;;;;;36.33;14.27;;;;;;;;;;4961727;28;20468;-64
2023/01/25 06:16:11;;;;;;;30.97;12.50;;;;;;;;;;4965429;28;20472;-64
2023/01/25 06:18:41;;;;;;;43.90;16.10;;;;;;;;;;4962769;28;20525;-65
2023/01/25 06:21:28;;;;;;;41.73;16.60;;;;;;;;;;4962352;28;20831;-65
2023/01/25 06:23:55;;;;;;;36.83;13.60;;;;;;;;;;4964641;28;20475;-65
2023/01/25 06:26:22;;;;;;;40.77;15.83;;;;;;;;;;4962906;28;20456;-64
2023/01/25 06:28:49;;;;;;;49.90;17.73;;;;;;;;;;4964478;28;20815;-65
2023/01/25 06:31:18;;;;;;;42.90;16.00;;;;;;;;;;4963436;28;20448;-65
2023/01/25 06:34:05;;;;;;;36.43;12.77;;;;;;;;;;4964099;28;20456;-64
2023/01/25 06:36:32;;;;;;;40.60;14.30;;;;;;;;;;4944035;28;20546;-64
2023/01/25 06:39:16;;;;;;;45.80;15.77;;;;;;;;;;4983651;28;20814;-65
2023/01/25 06:41:43;;;;;;;39.10;11.50;;;;;;;;;;4971782;28;20468;-65
2023/01/25 06:44:10;;;;;;;43.23;16.97;;;;;;;;;;4965113;28;20460;-64
2023/01/25 06:46:37;;;;;;;42.50;16.63;;;;;;;;;;4962928;28;20503;-65
2023/01/25 06:49:03;;;;;;;38.60;15.77;;;;;;;;;;4963267;28;21348;-64
2023/01/25 06:51:47;;;;;;;26.67;9.30;;;;;;;;;;4962344;28;20451;-64
2023/01/25 06:54:14;;;;;;;35.73;14.73;;;;;;;;;;4964287;28;20463;-64
2023/01/25 06:56:40;;;;;;;30.97;10.93;;;;;;;;;;4962900;28;20483;-64
2023/01/25 06:59:07;;;;;;;39.43;14.20;;;;;;;;;;4970352;28;20451;-64
2023/01/25 07:01:34;;;;;;;42.03;16.03;;;;;;;;;;4982280;28;20463;-64
2023/01/25 07:04:18;;;;;;;32.17;12.47;;;;;;;;;;4982502;28;20838;-64
2023/01/25 07:06:45;;;;;;;41.00;17.13;;;;;;;;;;4982096;28;20459;-65
2023/01/25 07:09:29;;;;;;;36.97;15.70;;;;;;;;;;4982535;28;20453;-65
2023/01/25 07:11:55;;;;;;;36.57;14.97;;;;;;;;;;4976118;28;20484;-65
2023/01/25 07:14:22;;;;;;;35.93;16.10;;;;;;;;;;4964482;28;20460;-65
2023/01/25 07:16:48;;;;;;;43.17;16.57;;;;;;;;;;4962557;28;20986;-65
2023/01/25 07:19:16;;;;;;;49.43;17.77;;;;;;;;;;4964246;28;20472;-65
2023/01/25 07:21:43;;;;;;;41.60;16.93;;;;;;;;;;4963178;28;20467;-65
2023/01/25 07:24:11;;;;;;;38.43;13.97;;;;;;;;;;4950735;28;20526;-65
2023/01/25 07:26:38;;;;;;;42.97;16.97;;;;;;;;;;4966807;28;20800;-65
2023/01/25 07:29:04;;;;;;;40.40;17.03;;;;;;;;;;4967681;28;20495;-64
2023/01/25 07:31:31;;;;;;;38.93;14.43;;;;;;;;;;4966260;28;20506;-65
2023/01/25 07:33:58;;;;;;;43.07;17.70;;;;;;;;;;4967582;28;20460;-65
2023/01/25 07:36:25;;;;;;;40.87;16.77;;;;;;;;;;4963954;28;21015;-64
2023/01/25 07:38:52;;;;;;;37.10;15.70;;;;;;;;;;4981446;28;20546;-64
2023/01/25 07:41:18;;;;;;;20.50;8.93;;;;;;;;;;4985809;28;20448;-64
2023/01/25 07:43:45;;;;;;;43.63;16.33;;;;;;;;;;4987046;28;20462;-64
2023/01/25 07:46:18;;;;;;;38.30;16.50;;;;;;;;;;4966274;28;20446;-65
2023/01/25 07:48:46;;;;;;;38.07;16.03;;;;;;;;;;4987226;28;20814;-65
2023/01/25 07:51:31;;;;;;;32.90;14.60;;;;;;;;;;4983774;28;20490;-65
2023/01/25 07:53:59;;;;;;;35.63;15.90;;;;;;;;;;4967311;28;20448;-64
2023/01/25 07:56:26;;;;;;;35.13;16.07;;;;;;;;;;4965512;28;20462;-65
2023/01/25 07:58:53;;;;;;;39.47;15.87;;;;;;;;;;4966617;28;20452;-65
2023/01/25 08:01:21;;;;;;;39.87;16.27;;;;;;;;;;4941255;28;20472;-65
2023/01/25 08:03:48;;;;;;;41.10;17.57;;;;;;;;;;4956227;28;20475;-64
2023/01/25 08:06:14;;;;;;;39.67;16.57;;;;;;;;;;4957480;28;20464;-64
2023/01/25 08:08:59;;;;;;;36.40;15.80;;;;;;;;;;4964830;28;20455;-65
2023/01/25 08:11:26;;;;;;;33.23;14.83;;;;;;;;;;4948431;28;20463;-65
2023/01/25 08:14:10;;;;;;;34.03;15.73;;;;;;;;;;4966558;28;20451;-65
2023/01/25 08:16:37;;;;;;;27.60;11.73;;;;;;;;;;4965235;28;20815;-65
2023/01/25 08:19:23;;;;;;;31.93;14.47;;;;;;;;;;4966867;28;20462;-64
2023/01/25 08:21:52;;;;;;;36.37;13.30;;;;;;;;;;4965394;28;20526;-65
2023/01/25 08:24:22;;;;;;;38.80;16.30;;;;;;;;;;4965341;28;21336;-65
2023/01/25 08:26:50;;;;;;;38.13;16.13;;;;;;;;;;4965394;28;20467;-65
2023/01/25 08:29:17;;;;;;;38.77;17.70;;;;;;;;;;4967583;28;20448;-65
2023/01/25 08:32:03;;;;;;;34.80;16.57;;;;;;;;;;4965806;28;20463;-65
2023/01/25 08:34:31;;;;;;;37.97;17.33;;;;;;;;;;4949775;28;20874;-65
2023/01/25 08:37:15;;;;;;;40.03;16.10;;;;;;;;;;4969139;28;20538;-64
2023/01/25 08:39:41;;;;;;;37.83;17.07;;;;;;;;;;4971338;28;20470;-65
2023/01/25 08:42:08;;;;;;;31.87;14.93;;;;;;;;;;4984245;28;20570;-65
2023/01/25 08:44:35;;;;;;;37.67;16.47;;;;;;;;;;4986816;28;20467;-65
2023/01/25 08:47:01;;;;;;;30.80;11.97;;;;;;;;;;4984409;28;20463;-64
2023/01/25 08:49:45;;;;;;;43.00;18.07;;;;;;;;;;4985602;28;20459;-65
2023/01/25 08:52:13;;;;;;;40.07;17.30;;;;;;;;;;4967754;28;20463;-65
2023/01/25 08:54:43;;;;;;;44.57;15.80;;;;;;;;;;4966669;28;20472;-64
2023/01/25 08:57:10;;;;;;;44.07;18.50;;;;;;;;;;4964673;28;20464;-65
2023/01/25 08:59:36;;;;;;;42.20;16.67;;;;;;;;;;4966984;28;20539;-64
2023/01/25 09:02:21;;;;;;;46.60;17.20;;;;;;;;;;4964194;28;20911;-65
2023/01/25 09:04:48;;;;;;;35.63;14.73;;;;;;;;;;4965773;28;20866;-64
2023/01/25 09:07:36;;;;;;;44.97;18.60;;;;;;;;;;4964393;28;20440;-65
2023/01/25 09:10:07;;;;;;;31.87;12.77;;;;;;;;;;4964446;28;20454;-64
2023/01/25 09:12:35;;;;;;;49.57;18.43;;;;;;;;;;4964118;28;20459;-64
2023/01/25 09:15:02;;;;;;;51.23;19.37;;;;;;;;;;4965892;28;20518;-64
2023/01/25 09:17:28;;;;;;;53.53;20.20;;;;;;;;;;4964828;28;20534;-64
2023/01/25 09:19:55;;;;;;;61.77;20.20;;;;;;;;;;4964742;28;20955;-64
2023/01/25 09:22:22;;;;;;;60.90;23.40;;;;;;;;;;4963954;28;20468;-64
2023/01/25 09:24:51;;;;;;;60.50;22.43;;;;;;;;;;4966221;28;20451;-64
2023/01/25 09:27:35;;;;;;;57.37;20.13;;;;;;;;;;4963505;28;20528;-65
2023/01/25 09:30:02;;;;;;;36.93;14.03;;;;;;;;;;4965889;28;20470;-64
2023/01/25 09:32:51;;;;;;;65.90;22.43;;;;;;;;;;4962206;28;20498;-65
2023/01/25 09:35:18;;;;;;;65.10;24.27;;;;;;;;;;4968820;28;20459;-65
2023/01/25 09:37:48;;;;;;;57.53;22.37;;;;;;;;;;4974387;28;20486;-64
2023/01/25 09:40:19;;;;;;;58.07;20.43;;;;;;;;;;4986817;28;20453;-65
2023/01/25 09:42:46;;;;;;;57.57;21.33;;;;;;;;;;4985486;28;20559;-65
2023/01/25 09:45:15;;;;;;;56.47;20.67;;;;;;;;;;4987414;28;20582;-64
2023/01/25 09:47:50;;;;;;;44.23;14.33;;;;;;;;;;4969789;28;20993;-65
2023/01/25 09:50:26;;;;;;;42.90;17.87;;;;;;;;;;4985729;28;20470;-65
2023/01/25 09:53:11;;;;;;;39.60;13.47;;;;;;;;;;4985644;28;20458;-64
2023/01/25 09:55:38;;;;;;;31.50;11.13;;;;;;;;;;4968389;28;20860;-64
2023/01/25 09:58:08;;;;;;;46.97;18.50;;;;;;;;;;4966976;28;20507;-64
2023/01/25 10:00:36;;;;;;;59.37;22.33;;;;;;;;;;4950086;28;20444;-65
2023/01/25 10:03:02;;;;;;;64.50;22.97;;;;;;;;;;4951300;28;20945;-64
2023/01/25 10:05:30;;;;;;;35.83;14.30;;;;;;;;;;4967468;28;20454;-65
2023/01/25 10:27:30;;;;;;;56.87;20.93;;;;;;;;;;4961339;28;20506;-65
2023/01/25 10:29:57;;;;;;;41.43;14.10;;;;;;;;;;4962343;28;20468;-64
2023/01/25 10:32:30;;;;;;;57.57;21.13;;;;;;;;;;4964680;28;20468;-64
2023/01/25 10:34:57;;;;;;;59.27;21.37;;;;;;;;;;4962629;28;20545;-64
2023/01/25 10:37:26;;;;;;;65.63;21.07;;;;;;;;;;4951716;28;23382;-64
2023/01/25 10:40:03;;;;;;;55.07;20.23;;;;;;;;;;4982311;28;20466;-65
2023/01/25 10:42:31;;;;;;;44.07;14.60;;;;;;;;;;4981387;28;20462;-64
2023/01/25 10:44:58;;;;;;;63.43;21.60;;;;;;;;;;4980841;28;20467;-65
2023/01/25 10:47:34;;;;;;;48.57;18.03;;;;;;;;;;4980924;28;20841;-65
2023/01/25 10:50:02;;;;;;;76.63;24.97;;;;;;;;;;4962774;28;20451;-65
2023/01/25 10:52:30;;;;;;;72.80;25.80;;;;;;;;;;4962212;28;20471;-65
2023/01/25 10:55:13;;;;;;;78.00;24.73;;;;;;;;;;4964356;28;20452;-65
2023/01/25 10:57:50;;;;;;;48.27;17.73;;;;;;;;;;4970574;28;20451;-64
2023/01/25 11:00:27;;;;;;;78.33;26.87;;;;;;;;;;4970193;28;20490;-65
2023/01/25 11:02:56;;;;;;;59.97;21.83;;;;;;;;;;4968940;28;20467;-65
2023/01/25 11:05:35;;;;;;;60.30;23.53;;;;;;;;;;4970952;28;20456;-65
2023/01/25 11:08:19;;;;;;;57.87;21.00;;;;;;;;;;4970195;28;20447;-65
2023/01/25 11:10:46;;;;;;;50.00;19.80;;;;;;;;;;4968550;28;20459;-65
2023/01/25 11:13:16;;;;;;;48.37;22.40;;;;;;;;;;4970719;28;20470;-65
2023/01/25 11:15:46;;;;;;;56.53;23.93;;;;;;;;;;4969043;28;20453;-66
2023/01/25 11:18:15;;;;;;;51.77;22.50;;;;;;;;;;4968758;28;20456;-66
2023/01/25 11:20:42;;;;;;;61.03;24.60;;;;;;;;;;4951961;28;20459;-65
2023/01/25 11:23:30;;;;;;;46.03;17.70;;;;;;;;;;4953619;28;20586;-65
2023/01/25 11:26:10;;;;;;;52.67;19.77;;;;;;;;;;4967344;28;20468;-65
2023/01/25 11:28:37;;;;;;;54.80;24.17;;;;;;;;;;4951817;28;20961;-65
2023/01/25 11:31:21;;;;;;;53.90;23.03;;;;;;;;;;4970726;28;21074;-65
2023/01/25 11:33:48;;;;;;;49.20;20.67;;;;;;;;;;4951127;28;20508;-65
2023/01/25 11:36:32;;;;;;;50.13;24.03;;;;;;;;;;4970359;28;20522;-65
2023/01/25 11:38:59;;;;;;;47.83;22.30;;;;;;;;;;4985359;28;20505;-65
2023/01/25 11:41:28;;;;;;;38.90;17.23;;;;;;;;;;4990123;28;20533;-65
2023/01/25 11:44:21;;;;;;;45.87;20.53;;;;;;;;;;4986821;28;20443;-65
2023/01/25 11:47:06;;;;;;;41.97;17.83;;;;;;;;;;4984193;28;20474;-65
2023/01/25 11:49:50;;;;;;;34.83;13.63;;;;;;;;;;4988652;28;20459;-65
2023/01/25 11:52:29;;;;;;;45.73;21.33;;;;;;;;;;4986024;28;20470;-66
2023/01/25 11:55:04;;;;;;;48.27;20.13;;;;;;;;;;4987957;28;20795;-65
2023/01/25 11:57:40;;;;;;;45.53;21.70;;;;;;;;;;4988077;28;20450;-65
2023/01/25 12:00:21;;;;;;;42.40;19.77;;;;;;;;;;4969626;28;20882;-65
2023/01/25 12:03:05;;;;;;;33.10;16.27;;;;;;;;;;4967700;28;20474;-65
2023/01/25 12:05:41;;;;;;;43.60;18.37;;;;;;;;;;4970892;28;20463;-65
2023/01/25 12:08:17;;;;;;;40.50;18.93;;;;;;;;;;4967445;28;20451;-65
2023/01/25 12:10:44;;;;;;;32.20;12.67;;;;;;;;;;4965240;28;21019;-65
2023/01/25 12:13:28;;;;;;;42.43;18.83;;;;;;;;;;4966259;28;20456;-65
2023/01/25 12:15:55;;;;;;;40.57;17.67;;;;;;;;;;4964697;28;20531;-65
2023/01/25 12:18:21;;;;;;;39.63;17.10;;;;;;;;;;4966953;28;20463;-65
2023/01/25 12:20:54;;;;;;;30.60;12.33;;;;;;;;;;4964606;28;20472;-65
2023/01/25 12:23:23;;;;;;;39.13;16.97;;;;;;;;;;4965751;28;20479;-65
2023/01/25 12:26:37;;;;;;;40.73;19.20;;;;;;;;;;4966575;28;20854;-65
2023/01/25 12:29:21;;;;;;;44.10;20.40;;;;;;;;;;4911907;28;20998;-65
2023/01/25 12:31:51;;;;;;;32.27;12.40;;;;;;;;;;4964203;28;20463;-65
2023/01/25 12:34:22;;;;;;;33.30;12.80;;;;;;;;;;4964653;28;20456;-64
2023/01/25 12:36:48;;;;;;;37.80;18.93;;;;;;;;;;4964804;28;20483;-65
2023/01/25 12:39:26;;;;;;;32.33;13.83;;;;;;;;;;4985494;28;20466;-64
2023/01/25 12:41:53;;;;;;;46.80;21.03;;;;;;;;;;4975313;28;20459;-65
2023/01/25 12:44:23;;;;;;;43.53;21.27;;;;;;;;;;4965223;28;20602;-65
2023/01/25 12:46:58;;;;;;;35.40;15.83;;;;;;;;;;4948222;28;20468;-65
2023/01/25 12:49:44;;;;;;;48.63;21.87;;;;;;;;;;4964281;28;20459;-65
2023/01/25 12:52:30;;;;;;;43.63;20.50;;;;;;;;;;4965922;28;20788;-65
2023/01/25 12:55:16;;;;;;;42.87;20.63;;;;;;;;;;4950213;28;20471;-65
2023/01/25 12:57:42;;;;;;;46.50;22.10;;;;;;;;;;4962810;28;20472;-65
2023/01/25 13:00:44;;;;;;;40.27;19.53;;;;;;;;;;4965741;28;20559;-65
2023/01/25 13:03:16;;;;;;;47.83;21.97;;;;;;;;;;4963851;28;20566;-66
2023/01/25 13:05:52;;;;;;;34.77;15.57;;;;;;;;;;4964246;28;21054;-65
2023/01/25 13:08:30;;;;;;;35.37;17.67;;;;;;;;;;4949883;28;20919;-66
2023/01/25 13:11:19;;;;;;;30.07;13.53;;;;;;;;;;4962916;28;20483;-65
2023/01/25 13:13:46;;;;;;;38.33;16.13;;;;;;;;;;4964270;28;20484;-66
2023/01/25 13:16:23;;;;;;;37.23;16.00;;;;;;;;;;4949183;28;20539;-65
2023/01/25 13:18:49;;;;;;;38.30;17.23;;;;;;;;;;4962251;28;20518;-65
2023/01/25 13:21:35;;;;;;;30.63;14.80;;;;;;;;;;4963661;28;20510;-65
2023/01/25 13:24:27;;;;;;;39.37;18.03;;;;;;;;;;4965049;28;20468;-66
2023/01/25 13:26:54;;;;;;;43.30;18.63;;;;;;;;;;4961216;28;20471;-65
2023/01/25 13:29:24;;;;;;;48.20;21.83;;;;;;;;;;4965730;28;20483;-65
2023/01/25 13:31:53;;;;;;;43.30;19.53;;;;;;;;;;4964311;28;20456;-66
2023/01/25 13:34:37;;;;;;;42.00;19.13;;;;;;;;;;4963439;28;20475;-65
2023/01/25 13:37:16;;;;;;;65.13;29.20;;;;;;;;;;4964842;28;20506;-66
2023/01/25 13:39:44;;;;;;;43.67;21.33;;;;;;;;;;4978860;28;20471;-65
2023/01/25 13:42:11;;;;;;;47.00;21.17;;;;;;;;;;4946133;28;20467;-65
2023/01/25 13:44:41;;;;;;;46.70;21.83;;;;;;;;;;4965480;28;20543;-65
2023/01/25 13:47:11;;;;;;;44.17;21.27;;;;;;;;;;4962906;28;20959;-65
2023/01/25 13:49:41;;;;;;;46.47;22.20;;;;;;;;;;4932790;28;20930;-65
2023/01/25 13:52:13;;;;;;;46.63;22.03;;;;;;;;;;4962154;28;20483;-65
2023/01/25 13:54:43;;;;;;;49.17;23.07;;;;;;;;;;4963336;28;20472;-65
2023/01/25 13:57:10;;;;;;;49.00;23.40;;;;;;;;;;4963299;28;20460;-65
2023/01/25 13:59:39;;;;;;;39.60;19.73;;;;;;;;;;4965417;28;20894;-65
2023/01/25 14:02:32;;;;;;;44.43;21.37;;;;;;;;;;4963424;28;20560;-65
2023/01/25 14:04:59;;;;;;;50.50;22.13;;;;;;;;;;4958751;28;20977;-65
2023/01/25 14:07:28;;;;;;;49.37;24.23;;;;;;;;;;4964814;28;21050;-65
2023/01/25 14:09:55;;;;;;;46.13;23.10;;;;;;;;;;4963708;28;20475;-65
2023/01/25 14:12:27;;;;;;;45.57;21.80;;;;;;;;;;4964845;28;20487;-65
2023/01/25 14:14:54;;;;;;;38.43;19.50;;;;;;;;;;4963490;28;20543;-65
2023/01/25 14:17:21;;;;;;;44.17;19.70;;;;;;;;;;4965133;28;20514;-65
2023/01/25 14:19:48;;;;;;;46.57;17.47;;;;;;;;;;4963075;28;20460;-65
2023/01/25 14:22:19;;;;;;;45.10;20.57;;;;;;;;;;4963560;28;20456;-65
2023/01/25 14:25:06;;;;;;;38.23;18.77;;;;;;;;;;4963832;28;20470;-65
2023/01/25 14:27:36;;;;;;;43.93;20.13;;;;;;;;;;4950776;28;20478;-65
2023/01/25 14:30:03;;;;;;;41.07;19.77;;;;;;;;;;4932122;28;20970;-65
2023/01/25 14:32:29;;;;;;;45.53;21.27;;;;;;;;;;4962953;28;20535;-65
2023/01/25 14:34:56;;;;;;;47.53;22.17;;;;;;;;;;4946906;28;20479;-65
2023/01/25 14:37:23;;;;;;;50.53;23.57;;;;;;;;;;4966428;28;20459;-65
2023/01/25 14:39:49;;;;;;;48.80;20.63;;;;;;;;;;4983946;28;20472;-65
2023/01/25 14:42:16;;;;;;;47.23;22.60;;;;;;;;;;4981693;28;20803;-65
2023/01/25 14:44:43;;;;;;;39.37;18.87;;;;;;;;;;4984171;28;20483;-65
2023/01/25 14:47:19;;;;;;;44.80;20.00;;;;;;;;;;4982210;28;20493;-64
2023/01/25 14:49:46;;;;;;;39.13;19.07;;;;;;;;;;4980833;28;20451;-65
2023/01/25 14:52:14;;;;;;;41.43;19.33;;;;;;;;;;4983499;28;20466;-65
2023/01/25 14:54:49;;;;;;;41.67;20.23;;;;;;;;;;4977298;28;20514;-65
2023/01/25 14:57:31;;;;;;;37.33;19.47;;;;;;;;;;4947111;28;20478;-65
2023/01/25 14:59:58;;;;;;;39.97;19.50;;;;;;;;;;4963221;28;20468;-65
2023/01/25 15:02:46;;;;;;;41.83;19.17;;;;;;;;;;4964093;28;20499;-65
2023/01/25 15:05:20;;;;;;;41.53;20.57;;;;;;;;;;4962269;28;20819;-65
2023/01/25 15:08:07;;;;;;;38.60;20.87;;;;;;;;;;4945796;28;20998;-65
2023/01/25 15:10:34;;;;;;;41.00;20.47;;;;;;;;;;4964581;28;20530;-65
2023/01/25 15:13:22;;;;;;;42.53;20.07;;;;;;;;;;4934225;28;20483;-65
2023/01/25 15:15:53;;;;;;;45.00;21.33;;;;;;;;;;4962661;28;20878;-65
2023/01/25 15:18:39;;;;;;;43.93;20.57;;;;;;;;;;4961754;28;20523;-64
2023/01/25 15:21:08;;;;;;;39.27;20.07;;;;;;;;;;4948609;28;20456;-65
2023/01/25 15:23:35;;;;;;;44.67;21.67;;;;;;;;;;4945487;28;20473;-65
2023/01/25 15:26:10;;;;;;;41.73;20.97;;;;;;;;;;4963938;28;20522;-65
2023/01/25 15:28:37;;;;;;;46.13;21.43;;;;;;;;;;4962260;28;20459;-65
2023/01/25 15:31:03;;;;;;;41.90;21.23;;;;;;;;;;4964146;28;20463;-65
2023/01/25 15:33:31;;;;;;;46.37;22.13;;;;;;;;;;4961894;28;20561;-65
2023/01/25 15:35:58;;;;;;;44.13;22.13;;;;;;;;;;4962111;28;20460;-65
2023/01/25 15:38:25;;;;;;;48.83;22.27;;;;;;;;;;4976495;28;20522;-65
2023/01/25 15:40:52;;;;;;;42.03;21.40;;;;;;;;;;4981696;28;20461;-65